sensor_id;sensor_type;location;lat;lon;timestamp;P1;durP1;ratioP1;P2;durP2;ratioP2
69953;SDS011;57276;51.364;12.376;2023-07-13T00:03:56;4.50;;;2.40;;
69953;SDS011;57276;51.364;12.376;2023-07-13T00:09:58;5.57;;;2.47;;
69953;SDS011;57276;51.364;12.376;2023-07-13T00:16:00;4.75;;;2.30;;
69953;SDS011;57276;51.364;12.376;2023-07-13T00:22:02;8.52;;;3.25;;
69953;SDS011;57276;51.364;12.376;2023-07-13T00:28:04;5.07;;;2.57;;
69953;SDS011;57276;51.364;12.376;2023-07-13T00:34:05;3.85;;;2.13;;
69953;SDS011;57276;51.364;12.376;2023-07-13T00:40:07;4.93;;;2.07;;
69953;SDS011;57276;51.364;12.376;2023-07-13T00:46:13;3.53;;;1.90;;
69953;SDS011;57276;51.364;12.376;2023-07-13T00:52:16;4.57;;;1.80;;
69953;SDS011;57276;51.364;12.376;2023-07-13T00:58:18;4.80;;;1.83;;
69953;SDS011;57276;51.364;12.376;2023-07-13T01:04:19;5.65;;;1.90;;
69953;SDS011;57276;51.364;12.376;2023-07-13T01:10:21;4.07;;;1.70;;
69953;SDS011;57276;51.364;12.376;2023-07-13T01:16:25;3.80;;;1.60;;
69953;SDS011;57276;51.364;12.376;2023-07-13T01:22:27;5.80;;;1.90;;
69953;SDS011;57276;51.364;12.376;2023-07-13T01:28:31;4.87;;;1.70;;
69953;SDS011;57276;51.364;12.376;2023-07-13T01:34:38;6.63;;;2.55;;
69953;SDS011;57276;51.364;12.376;2023-07-13T01:40:42;4.30;;;2.00;;
69953;SDS011;57276;51.364;12.376;2023-07-13T01:46:43;3.67;;;1.80;;
69953;SDS011;57276;51.364;12.376;2023-07-13T01:52:45;5.10;;;2.00;;
69953;SDS011;57276;51.364;12.376;2023-07-13T01:58:48;4.33;;;1.70;;
69953;SDS011;57276;51.364;12.376;2023-07-13T02:04:50;4.97;;;1.90;;
69953;SDS011;57276;51.364;12.376;2023-07-13T02:10:52;5.93;;;2.10;;
69953;SDS011;57276;51.364;12.376;2023-07-13T02:16:53;5.60;;;1.90;;
69953;SDS011;57276;51.364;12.376;2023-07-13T02:22:55;5.60;;;2.15;;
69953;SDS011;57276;51.364;12.376;2023-07-13T02:28:57;5.77;;;2.00;;
69953;SDS011;57276;51.364;12.376;2023-07-13T02:34:58;7.10;;;2.40;;
69953;SDS011;57276;51.364;12.376;2023-07-13T02:41:00;4.10;;;2.03;;
69953;SDS011;57276;51.364;12.376;2023-07-13T02:47:02;7.47;;;1.92;;
69953;SDS011;57276;51.364;12.376;2023-07-13T02:53:04;5.45;;;2.00;;
69953;SDS011;57276;51.364;12.376;2023-07-13T02:59:06;4.30;;;2.10;;
69953;SDS011;57276;51.364;12.376;2023-07-13T03:05:08;4.38;;;2.30;;
69953;SDS011;57276;51.364;12.376;2023-07-13T03:11:15;4.10;;;2.30;;
69953;SDS011;57276;51.364;12.376;2023-07-13T03:17:17;6.10;;;2.13;;
69953;SDS011;57276;51.364;12.376;2023-07-13T03:23:20;9.30;;;2.30;;
69953;SDS011;57276;51.364;12.376;2023-07-13T03:29:21;7.50;;;2.27;;
69953;SDS011;57276;51.364;12.376;2023-07-13T03:35:24;6.57;;;2.25;;
69953;SDS011;57276;51.364;12.376;2023-07-13T03:41:26;6.10;;;2.43;;
69953;SDS011;57276;51.364;12.376;2023-07-13T03:47:29;7.55;;;2.42;;
69953;SDS011;57276;51.364;12.376;2023-07-13T03:53:31;5.90;;;2.72;;
69953;SDS011;57276;51.364;12.376;2023-07-13T03:59:33;6.07;;;2.60;;
69953;SDS011;57276;51.364;12.376;2023-07-13T04:05:35;6.35;;;2.30;;
69953;SDS011;57276;51.364;12.376;2023-07-13T04:11:37;7.40;;;2.73;;
69953;SDS011;57276;51.364;12.376;2023-07-13T04:17:40;8.38;;;2.80;;
69953;SDS011;57276;51.364;12.376;2023-07-13T04:23:41;4.40;;;2.35;;
69953;SDS011;57276;51.364;12.376;2023-07-13T04:29:43;5.27;;;2.60;;
69953;SDS011;57276;51.364;12.376;2023-07-13T04:35:45;5.95;;;2.78;;
69953;SDS011;57276;51.364;12.376;2023-07-13T04:41:48;7.33;;;2.70;;
69953;SDS011;57276;51.364;12.376;2023-07-13T04:47:49;5.05;;;2.58;;
69953;SDS011;57276;51.364;12.376;2023-07-13T04:53:51;6.20;;;2.83;;
69953;SDS011;57276;51.364;12.376;2023-07-13T05:00:00;5.07;;;2.60;;
69953;SDS011;57276;51.364;12.376;2023-07-13T05:06:04;6.40;;;2.80;;
69953;SDS011;57276;51.364;12.376;2023-07-13T05:12:06;6.70;;;2.77;;
69953;SDS011;57276;51.364;12.376;2023-07-13T05:18:08;5.40;;;2.65;;
69953;SDS011;57276;51.364;12.376;2023-07-13T05:24:09;5.78;;;2.67;;
69953;SDS011;57276;51.364;12.376;2023-07-13T05:30:25;10.97;;;3.00;;
69953;SDS011;57276;51.364;12.376;2023-07-13T05:36:26;6.10;;;2.40;;
69953;SDS011;57276;51.364;12.376;2023-07-13T05:42:28;5.17;;;2.40;;
69953;SDS011;57276;51.364;12.376;2023-07-13T05:48:29;5.47;;;2.20;;
69953;SDS011;57276;51.364;12.376;2023-07-13T05:54:31;4.93;;;2.30;;
69953;SDS011;57276;51.364;12.376;2023-07-13T06:00:32;5.67;;;2.13;;
69953;SDS011;57276;51.364;12.376;2023-07-13T06:06:35;6.13;;;2.30;;
69953;SDS011;57276;51.364;12.376;2023-07-13T06:12:36;6.70;;;2.40;;
69953;SDS011;57276;51.364;12.376;2023-07-13T06:18:38;5.95;;;2.33;;
69953;SDS011;57276;51.364;12.376;2023-07-13T06:24:40;7.82;;;2.20;;
69953;SDS011;57276;51.364;12.376;2023-07-13T06:30:42;5.60;;;2.47;;
69953;SDS011;57276;51.364;12.376;2023-07-13T06:36:43;7.00;;;2.60;;
69953;SDS011;57276;51.364;12.376;2023-07-13T06:42:45;5.13;;;2.27;;
69953;SDS011;57276;51.364;12.376;2023-07-13T06:48:47;4.55;;;2.05;;
69953;SDS011;57276;51.364;12.376;2023-07-13T06:54:48;5.47;;;2.20;;
69953;SDS011;57276;51.364;12.376;2023-07-13T07:00:50;4.57;;;2.17;;
69953;SDS011;57276;51.364;12.376;2023-07-13T07:06:53;6.05;;;2.50;;
69953;SDS011;57276;51.364;12.376;2023-07-13T07:12:57;4.23;;;2.30;;
69953;SDS011;57276;51.364;12.376;2023-07-13T07:18:58;7.70;;;2.30;;
69953;SDS011;57276;51.364;12.376;2023-07-13T07:25:00;5.05;;;2.20;;
69953;SDS011;57276;51.364;12.376;2023-07-13T07:31:01;8.23;;;2.23;;
69953;SDS011;57276;51.364;12.376;2023-07-13T07:37:06;7.55;;;2.10;;
69953;SDS011;57276;51.364;12.376;2023-07-13T07:43:11;7.33;;;1.93;;
69953;SDS011;57276;51.364;12.376;2023-07-13T07:49:13;5.82;;;1.95;;
69953;SDS011;57276;51.364;12.376;2023-07-13T07:55:14;4.45;;;2.00;;
69953;SDS011;57276;51.364;12.376;2023-07-13T08:01:19;5.37;;;1.90;;
69953;SDS011;57276;51.364;12.376;2023-07-13T08:07:23;4.75;;;1.80;;
69953;SDS011;57276;51.364;12.376;2023-07-13T08:13:25;4.83;;;1.73;;
69953;SDS011;57276;51.364;12.376;2023-07-13T08:19:26;5.65;;;1.67;;
69953;SDS011;57276;51.364;12.376;2023-07-13T08:25:28;4.82;;;1.60;;
69953;SDS011;57276;51.364;12.376;2023-07-13T08:31:29;5.53;;;1.70;;
69953;SDS011;57276;51.364;12.376;2023-07-13T08:37:31;6.03;;;1.83;;
69953;SDS011;57276;51.364;12.376;2023-07-13T08:43:34;5.40;;;2.03;;
69953;SDS011;57276;51.364;12.376;2023-07-13T08:49:36;5.73;;;1.63;;
69953;SDS011;57276;51.364;12.376;2023-07-13T08:55:40;5.47;;;1.90;;
69953;SDS011;57276;51.364;12.376;2023-07-13T09:08:00;5.57;;;2.00;;
69953;SDS011;57276;51.364;12.376;2023-07-13T09:14:26;4.70;;;1.90;;
69953;SDS011;57276;51.364;12.376;2023-07-13T09:20:50;6.37;;;1.67;;
69953;SDS011;57276;51.364;12.376;2023-07-13T09:26:52;4.75;;;2.08;;
69953;SDS011;57276;51.364;12.376;2023-07-13T09:32:55;5.00;;;1.90;;
69953;SDS011;57276;51.364;12.376;2023-07-13T09:45:30;5.93;;;2.00;;
69953;SDS011;57276;51.364;12.376;2023-07-13T09:51:32;5.77;;;1.93;;
69953;SDS011;57276;51.364;12.376;2023-07-13T09:57:33;5.18;;;2.25;;
69953;SDS011;57276;51.364;12.376;2023-07-13T10:03:54;7.13;;;1.90;;
69953;SDS011;57276;51.364;12.376;2023-07-13T10:09:56;4.72;;;1.90;;
69953;SDS011;57276;51.364;12.376;2023-07-13T10:15:58;4.90;;;1.85;;
69953;SDS011;57276;51.364;12.376;2023-07-13T10:22:22;5.27;;;2.13;;
69953;SDS011;57276;51.364;12.376;2023-07-13T10:28:37;7.35;;;2.25;;
69953;SDS011;57276;51.364;12.376;2023-07-13T10:34:40;5.40;;;2.00;;
69953;SDS011;57276;51.364;12.376;2023-07-13T10:40:43;4.40;;;1.98;;
69953;SDS011;57276;51.364;12.376;2023-07-13T10:46:46;4.15;;;1.92;;
69953;SDS011;57276;51.364;12.376;2023-07-13T10:52:49;4.80;;;2.10;;
69953;SDS011;57276;51.364;12.376;2023-07-13T10:59:26;5.50;;;2.00;;
69953;SDS011;57276;51.364;12.376;2023-07-13T11:11:32;4.78;;;1.67;;
69953;SDS011;57276;51.364;12.376;2023-07-13T11:17:48;4.45;;;1.50;;
69953;SDS011;57276;51.364;12.376;2023-07-13T11:23:54;5.00;;;1.40;;
69953;SDS011;57276;51.364;12.376;2023-07-13T11:30:13;3.25;;;1.30;;
69953;SDS011;57276;51.364;12.376;2023-07-13T11:36:21;5.67;;;1.63;;
69953;SDS011;57276;51.364;12.376;2023-07-13T11:42:23;4.07;;;1.63;;
69953;SDS011;57276;51.364;12.376;2023-07-13T11:48:29;4.35;;;1.67;;
69953;SDS011;57276;51.364;12.376;2023-07-13T11:54:34;3.23;;;1.70;;
69953;SDS011;57276;51.364;12.376;2023-07-13T12:00:44;5.18;;;1.70;;
69953;SDS011;57276;51.364;12.376;2023-07-13T12:06:46;3.33;;;1.50;;
69953;SDS011;57276;51.364;12.376;2023-07-13T12:12:50;6.32;;;1.30;;
69953;SDS011;57276;51.364;12.376;2023-07-13T12:18:53;2.90;;;1.30;;
69953;SDS011;57276;51.364;12.376;2023-07-13T12:24:54;3.83;;;1.40;;
69953;SDS011;57276;51.364;12.376;2023-07-13T12:31:04;3.17;;;1.70;;
69953;SDS011;57276;51.364;12.376;2023-07-13T12:37:08;4.33;;;1.70;;
69953;SDS011;57276;51.364;12.376;2023-07-13T12:43:12;3.45;;;1.30;;
69953;SDS011;57276;51.364;12.376;2023-07-13T12:49:14;3.83;;;1.40;;
69953;SDS011;57276;51.364;12.376;2023-07-13T12:55:20;5.10;;;1.47;;
69953;SDS011;57276;51.364;12.376;2023-07-13T13:01:26;3.45;;;1.50;;
69953;SDS011;57276;51.364;12.376;2023-07-13T13:07:28;3.40;;;1.60;;
69953;SDS011;57276;51.364;12.376;2023-07-13T13:13:31;2.90;;;1.58;;
69953;SDS011;57276;51.364;12.376;2023-07-13T13:19:32;4.03;;;1.65;;
69953;SDS011;57276;51.364;12.376;2023-07-13T13:25:34;3.07;;;1.47;;
69953;SDS011;57276;51.364;12.376;2023-07-13T13:31:36;3.05;;;1.98;;
69953;SDS011;57276;51.364;12.376;2023-07-13T13:37:37;3.97;;;1.83;;
69953;SDS011;57276;51.364;12.376;2023-07-13T13:43:39;3.13;;;1.75;;
69953;SDS011;57276;51.364;12.376;2023-07-13T13:49:42;6.15;;;1.73;;
69953;SDS011;57276;51.364;12.376;2023-07-13T13:55:43;6.77;;;1.97;;
69953;SDS011;57276;51.364;12.376;2023-07-13T14:01:46;3.53;;;1.50;;
69953;SDS011;57276;51.364;12.376;2023-07-13T14:07:50;14.00;;;2.17;;
69953;SDS011;57276;51.364;12.376;2023-07-13T14:13:55;5.23;;;1.70;;
69953;SDS011;57276;51.364;12.376;2023-07-13T14:19:57;5.82;;;1.88;;
69953;SDS011;57276;51.364;12.376;2023-07-13T14:25:59;4.30;;;1.60;;
69953;SDS011;57276;51.364;12.376;2023-07-13T14:32:00;5.15;;;1.95;;
69953;SDS011;57276;51.364;12.376;2023-07-13T14:38:02;4.43;;;2.00;;
69953;SDS011;57276;51.364;12.376;2023-07-13T14:44:13;4.67;;;2.13;;
69953;SDS011;57276;51.364;12.376;2023-07-13T14:50:17;5.00;;;2.05;;
69953;SDS011;57276;51.364;12.376;2023-07-13T14:56:19;3.70;;;1.93;;
69953;SDS011;57276;51.364;12.376;2023-07-13T15:02:27;3.78;;;1.95;;
69953;SDS011;57276;51.364;12.376;2023-07-13T15:08:29;6.05;;;1.77;;
69953;SDS011;57276;51.364;12.376;2023-07-13T15:14:30;6.33;;;1.60;;
69953;SDS011;57276;51.364;12.376;2023-07-13T15:20:34;3.72;;;1.77;;
69953;SDS011;57276;51.364;12.376;2023-07-13T15:26:37;4.17;;;1.67;;
69953;SDS011;57276;51.364;12.376;2023-07-13T15:32:43;3.42;;;1.40;;
69953;SDS011;57276;51.364;12.376;2023-07-13T15:38:45;6.20;;;1.40;;
69953;SDS011;57276;51.364;12.376;2023-07-13T15:44:47;4.50;;;1.50;;
69953;SDS011;57276;51.364;12.376;2023-07-13T15:56:54;2.93;;;1.40;;
69953;SDS011;57276;51.364;12.376;2023-07-13T16:02:56;5.30;;;1.50;;
69953;SDS011;57276;51.364;12.376;2023-07-13T16:08:58;2.90;;;1.35;;
69953;SDS011;57276;51.364;12.376;2023-07-13T16:15:00;5.27;;;1.50;;
69953;SDS011;57276;51.364;12.376;2023-07-13T16:21:12;4.20;;;1.60;;
69953;SDS011;57276;51.364;12.376;2023-07-13T16:27:14;3.60;;;1.47;;
69953;SDS011;57276;51.364;12.376;2023-07-13T16:33:16;4.50;;;1.40;;
69953;SDS011;57276;51.364;12.376;2023-07-13T16:39:18;3.42;;;1.40;;
69953;SDS011;57276;51.364;12.376;2023-07-13T16:45:21;6.10;;;1.50;;
69953;SDS011;57276;51.364;12.376;2023-07-13T16:51:25;5.50;;;1.52;;
69953;SDS011;57276;51.364;12.376;2023-07-13T16:57:30;3.47;;;1.60;;
69953;SDS011;57276;51.364;12.376;2023-07-13T17:03:32;5.38;;;1.50;;
69953;SDS011;57276;51.364;12.376;2023-07-13T17:09:35;4.15;;;1.40;;
69953;SDS011;57276;51.364;12.376;2023-07-13T17:15:36;5.30;;;1.60;;
69953;SDS011;57276;51.364;12.376;2023-07-13T17:21:39;6.28;;;1.90;;
69953;SDS011;57276;51.364;12.376;2023-07-13T17:27:41;3.93;;;1.40;;
69953;SDS011;57276;51.364;12.376;2023-07-13T17:33:42;4.22;;;1.50;;
69953;SDS011;57276;51.364;12.376;2023-07-13T17:39:45;3.58;;;1.40;;
69953;SDS011;57276;51.364;12.376;2023-07-13T17:45:47;4.57;;;1.83;;
69953;SDS011;57276;51.364;12.376;2023-07-13T17:51:49;3.13;;;1.50;;
69953;SDS011;57276;51.364;12.376;2023-07-13T17:57:51;3.57;;;1.60;;
69953;SDS011;57276;51.364;12.376;2023-07-13T18:03:54;5.95;;;2.70;;
69953;SDS011;57276;51.364;12.376;2023-07-13T18:09:59;5.60;;;2.90;;
69953;SDS011;57276;51.364;12.376;2023-07-13T18:16:01;4.17;;;2.40;;
69953;SDS011;57276;51.364;12.376;2023-07-13T18:22:10;6.10;;;3.10;;
69953;SDS011;57276;51.364;12.376;2023-07-13T18:28:12;5.90;;;2.83;;
69953;SDS011;57276;51.364;12.376;2023-07-13T18:34:15;5.25;;;2.17;;
69953;SDS011;57276;51.364;12.376;2023-07-13T18:40:17;4.72;;;1.77;;
69953;SDS011;57276;51.364;12.376;2023-07-13T18:46:21;3.77;;;1.37;;
69953;SDS011;57276;51.364;12.376;2023-07-13T18:52:24;4.28;;;1.63;;
69953;SDS011;57276;51.364;12.376;2023-07-13T18:58:27;5.23;;;2.00;;
69953;SDS011;57276;51.364;12.376;2023-07-13T19:04:30;6.45;;;1.85;;
69953;SDS011;57276;51.364;12.376;2023-07-13T19:10:32;7.68;;;1.98;;
69953;SDS011;57276;51.364;12.376;2023-07-13T19:16:35;6.03;;;1.93;;
69953;SDS011;57276;51.364;12.376;2023-07-13T19:22:37;5.28;;;2.08;;
69953;SDS011;57276;51.364;12.376;2023-07-13T19:28:40;5.17;;;2.20;;
69953;SDS011;57276;51.364;12.376;2023-07-13T19:34:43;4.93;;;2.00;;
69953;SDS011;57276;51.364;12.376;2023-07-13T19:40:44;7.22;;;1.83;;
69953;SDS011;57276;51.364;12.376;2023-07-13T19:46:46;5.80;;;1.80;;
69953;SDS011;57276;51.364;12.376;2023-07-13T19:52:52;5.60;;;2.10;;
69953;SDS011;57276;51.364;12.376;2023-07-13T19:58:57;5.47;;;2.00;;
69953;SDS011;57276;51.364;12.376;2023-07-13T20:04:59;4.95;;;2.00;;
69953;SDS011;57276;51.364;12.376;2023-07-13T20:11:10;7.53;;;2.17;;
69953;SDS011;57276;51.364;12.376;2023-07-13T20:23:34;6.78;;;2.55;;
69953;SDS011;57276;51.364;12.376;2023-07-13T20:29:36;4.90;;;2.20;;
69953;SDS011;57276;51.364;12.376;2023-07-13T20:35:38;9.75;;;2.25;;
69953;SDS011;57276;51.364;12.376;2023-07-13T20:41:40;4.55;;;2.20;;
69953;SDS011;57276;51.364;12.376;2023-07-13T20:47:42;4.33;;;1.90;;
69953;SDS011;57276;51.364;12.376;2023-07-13T20:53:44;4.80;;;2.10;;
69953;SDS011;57276;51.364;12.376;2023-07-13T20:59:51;6.10;;;2.27;;
69953;SDS011;57276;51.364;12.376;2023-07-13T21:05:54;6.72;;;1.95;;
69953;SDS011;57276;51.364;12.376;2023-07-13T21:11:56;3.92;;;1.77;;
69953;SDS011;57276;51.364;12.376;2023-07-13T21:17:58;4.60;;;1.90;;
69953;SDS011;57276;51.364;12.376;2023-07-13T21:24:00;4.72;;;1.88;;
69953;SDS011;57276;51.364;12.376;2023-07-13T21:30:01;5.47;;;2.27;;
69953;SDS011;57276;51.364;12.376;2023-07-13T21:36:04;5.47;;;2.22;;
69953;SDS011;57276;51.364;12.376;2023-07-13T21:42:07;4.22;;;1.92;;
69953;SDS011;57276;51.364;12.376;2023-07-13T21:48:09;4.60;;;1.77;;
69953;SDS011;57276;51.364;12.376;2023-07-13T21:54:18;5.20;;;2.10;;
69953;SDS011;57276;51.364;12.376;2023-07-13T22:00:21;6.43;;;2.37;;
69953;SDS011;57276;51.364;12.376;2023-07-13T22:06:25;4.10;;;2.10;;
69953;SDS011;57276;51.364;12.376;2023-07-13T22:12:27;5.97;;;2.13;;
69953;SDS011;57276;51.364;12.376;2023-07-13T22:18:29;5.23;;;2.03;;
69953;SDS011;57276;51.364;12.376;2023-07-13T22:24:41;4.45;;;2.10;;
69953;SDS011;57276;51.364;12.376;2023-07-13T22:30:43;4.10;;;2.00;;
69953;SDS011;57276;51.364;12.376;2023-07-13T22:36:46;4.78;;;1.92;;
69953;SDS011;57276;51.364;12.376;2023-07-13T22:42:47;5.78;;;2.00;;
69953;SDS011;57276;51.364;12.376;2023-07-13T22:48:53;5.93;;;2.37;;
69953;SDS011;57276;51.364;12.376;2023-07-13T22:54:55;8.70;;;3.00;;
69953;SDS011;57276;51.364;12.376;2023-07-13T23:00:59;4.70;;;2.63;;
69953;SDS011;57276;51.364;12.376;2023-07-13T23:07:02;6.93;;;2.60;;
69953;SDS011;57276;51.364;12.376;2023-07-13T23:13:04;6.38;;;2.40;;
69953;SDS011;57276;51.364;12.376;2023-07-13T23:19:18;5.67;;;2.20;;
69953;SDS011;57276;51.364;12.376;2023-07-13T23:25:21;7.00;;;2.42;;
69953;SDS011;57276;51.364;12.376;2023-07-13T23:31:25;5.80;;;2.57;;
69953;SDS011;57276;51.364;12.376;2023-07-13T23:37:27;6.18;;;2.60;;
69953;SDS011;57276;51.364;12.376;2023-07-13T23:43:30;6.25;;;2.58;;
69953;SDS011;57276;51.364;12.376;2023-07-13T23:49:31;5.90;;;2.37;;
69953;SDS011;57276;51.364;12.376;2023-07-13T23:55:34;6.85;;;2.70;;
